Terminal Aerodrome Forecast
Issued by NWS

Home | Current Version | Previous Version | Text Only | Print | Product List | Glossary Off
Versions: 1 2 3 4 5 6 7 8 9 10 11 12 13 14 15 16 17 18 19 20 21 22

000
FTUS43 KABR 220900 AAB
TAFMBG
TAF AMD
KMBG 220929Z 2209/2306 36010KT P6SM OVC007
      TEMPO 2209/2212 SCT007 SCT150
     FM221800 04009KT P6SM SCT150
     FM222300 08007KT P6SM SKC=

USA.gov is the U.S. government's official web portal to all federal, state and local government web resources and services.